Bville, New York
Current Conditions -  °F | °C
As of 3:54 AM on Wednesday 26 Nov 2014 (Local Time) from KFZY Reporting Station
Overcast Overcast  
Wind Chill:   Ceiling: 3400
Heat Index:   Visibility: 10mi
Dew Point: -4°   Wind: 5mph
Humidity: 62%   Direction: 220°SW
Pressure: 30.2"   Gusts: NA
Location:  43.1825°N, 76.3664°W
Report Text: KFZY 260854Z AUTO 22004KT 10SM OVC034 02/M04 A3020 RMK AO2 SLP230 T00221044 58003
Loading
Personal Weather Stations






























Interactive Weather Map New forecast layout! Learn more

10-Day Weather Forecast

Advertisements
Track Severe Weather on mobile